Time;durP1;ratioP1;P1;durP2;ratioP2;P2;SDS_P1;SDS_P2;PMS_P1;PMS_P2;Temp;Humidity;BMP_temperature;BMP_pressure;BME280_temperature;BME280_humidity;BME280_pressure;Samples;Min_cycle;Max_cycle;Signal;HPM_P1;HPM_P2
2023/03/11 00:01:30;;;;;;;27.60;15.00;;;;;;;6.34;100.00;95486.08;106033;1260;61375;-78
2023/03/11 00:03:57;;;;;;;30.00;16.20;;;;;;;6.45;100.00;95480.73;106072;1260;61285;-80
2023/03/11 00:06:24;;;;;;;27.30;15.70;;;;;;;6.56;100.00;95482.63;106033;1258;61166;-79
2023/03/11 00:08:51;;;;;;;37.90;24.70;;;;;;;6.64;100.00;95486.17;106001;1260;59583;-78
2023/03/11 00:11:18;;;;;;;42.60;25.40;;;;;;;6.65;100.00;95484.21;105994;1260;69810;-79
2023/03/11 00:13:44;;;;;;;31.20;19.00;;;;;;;6.64;100.00;95484.09;106728;1260;72524;-82
2023/03/11 00:16:11;;;;;;;29.60;16.30;;;;;;;6.66;100.00;95485.10;106558;1257;61385;-79
2023/03/11 00:18:37;;;;;;;35.30;19.20;;;;;;;6.70;100.00;95482.61;106597;1257;61207;-79
2023/03/11 00:21:04;;;;;;;29.50;18.60;;;;;;;6.73;100.00;95480.42;106625;1254;61323;-79
2023/03/11 00:23:31;;;;;;;31.10;19.50;;;;;;;6.74;100.00;95477.38;106741;1254;61253;-81
2023/03/11 00:26:00;;;;;;;30.50;18.20;;;;;;;6.73;100.00;95482.35;106698;1254;72547;-79
2023/03/11 00:28:26;;;;;;;30.30;19.60;;;;;;;6.71;100.00;95484.16;106636;1254;61317;-81
2023/03/11 00:30:53;;;;;;;28.20;17.80;;;;;;;6.68;100.00;95488.73;106713;1254;59547;-79
2023/03/11 00:33:19;;;;;;;34.30;21.20;;;;;;;6.64;100.00;95481.77;106713;1257;73414;-81
2023/03/11 00:35:45;;;;;;;39.70;23.20;;;;;;;6.62;100.00;95480.83;106676;1259;61238;-79
2023/03/11 00:38:14;;;;;;;35.80;21.50;;;;;;;6.60;100.00;95480.05;106719;1257;61347;-79
2023/03/11 00:40:40;;;;;;;37.40;21.20;;;;;;;6.56;100.00;95481.92;107468;1255;61093;-81
2023/03/11 00:43:07;;;;;;;45.80;24.90;;;;;;;6.52;100.00;95479.34;106658;1254;61223;-79
2023/03/11 00:45:34;;;;;;;28.60;17.30;;;;;;;6.49;100.00;95477.81;106658;1254;74334;-79
2023/03/11 00:48:00;;;;;;;26.60;17.50;;;;;;;6.48;100.00;95478.88;106711;1257;71100;-80
2023/03/11 00:50:29;;;;;;;28.50;17.70;;;;;;;6.46;100.00;95479.95;106695;1254;61230;-80
2023/03/11 00:52:55;;;;;;;27.90;17.40;;;;;;;6.44;100.00;95476.26;109316;1254;59197;-80
2023/03/11 00:55:25;;;;;;;28.10;18.00;;;;;;;6.44;100.00;95473.63;107449;1258;61167;-79
2023/03/11 00:57:57;;;;;;;28.60;18.80;;;;;;;6.41;100.00;95481.66;106621;1260;74476;-81
2023/03/11 01:00:23;;;;;;;32.40;18.30;;;;;;;6.42;100.00;95483.64;109235;1257;70328;-79
2023/03/11 01:02:50;;;;;;;28.00;18.80;;;;;;;6.41;100.00;95478.60;107257;1257;71349;-80
2023/03/11 01:05:19;;;;;;;18.80;13.00;;;;;;;6.42;100.00;95475.26;109250;1256;59022;-77
2023/03/11 01:07:45;;;;;;;22.20;13.80;;;;;;;6.45;100.00;95471.16;107411;1255;59302;-79
2023/03/11 01:10:12;;;;;;;23.90;15.90;;;;;;;6.49;100.00;95464.21;106098;1258;74561;-80
2023/03/11 01:12:38;;;;;;;22.70;15.10;;;;;;;6.54;100.00;95461.77;106028;1257;61273;-79
2023/03/11 01:15:06;;;;;;;19.90;11.10;;;;;;;6.55;100.00;95465.46;106037;1260;61211;-79
2023/03/11 01:17:32;;;;;;;15.40;9.20;;;;;;;6.58;100.00;95463.46;109217;1257;59071;-80
2023/03/11 01:19:58;;;;;;;19.90;9.40;;;;;;;6.61;100.00;95467.67;109241;1256;59092;-80
2023/03/11 01:22:25;;;;;;;14.70;8.20;;;;;;;6.65;100.00;95468.73;109206;1255;59149;-81
2023/03/11 01:24:51;;;;;;;11.70;6.40;;;;;;;6.70;100.00;95468.15;109265;1255;59158;-81
2023/03/11 01:27:18;;;;;;;10.10;6.60;;;;;;;6.74;100.00;95464.34;108373;1258;61360;-79
2023/03/11 01:29:44;;;;;;;13.10;5.90;;;;;;;6.80;100.00;95464.73;106533;1257;60432;-79
2023/03/11 01:32:11;;;;;;;9.90;6.80;;;;;;;6.86;100.00;95463.36;106575;1259;61202;-81
2023/03/11 01:34:37;;;;;;;9.60;4.90;;;;;;;6.97;100.00;95474.31;106058;1259;61279;-79
2023/03/11 01:37:04;;;;;;;11.20;6.20;;;;;;;7.10;100.00;95477.18;106092;1256;61753;-79
2023/03/11 01:39:30;;;;;;;10.20;6.20;;;;;;;7.16;100.00;95486.02;106011;1256;61323;-81
2023/03/11 01:41:56;;;;;;;6.70;4.80;;;;;;;7.21;100.00;95494.06;106077;1256;61238;-80
2023/03/11 01:44:23;;;;;;;7.80;5.80;;;;;;;7.23;100.00;95500.55;106064;1259;61389;-79
2023/03/11 01:46:52;;;;;;;11.20;6.20;;;;;;;7.24;100.00;95510.27;106072;1260;61269;-81
2023/03/11 01:49:19;;;;;;;8.80;4.10;;;;;;;7.22;100.00;95515.58;105939;1257;134151;-81
2023/03/11 01:51:48;;;;;;;3.90;2.80;;;;;;;7.14;100.00;95517.45;106110;1260;71358;-80
2023/03/11 01:54:17;;;;;;;3.70;2.20;;;;;;;7.01;100.00;95519.61;107203;1257;61236;-79
2023/03/11 01:56:44;;;;;;;6.50;4.20;;;;;;;6.92;100.00;95519.17;106687;1258;61314;-80
2023/03/11 01:59:11;;;;;;;3.90;2.50;;;;;;;6.83;100.00;95512.60;106569;1256;73366;-79
2023/03/11 02:01:42;;;;;;;5.70;3.50;;;;;;;6.74;100.00;95513.01;106584;1256;70426;-81
2023/03/11 02:04:09;;;;;;;3.30;2.40;;;;;;;6.68;100.00;95510.48;106562;1257;70461;-80
2023/03/11 02:06:35;;;;;;;2.70;1.90;;;;;;;6.62;100.00;95506.19;106651;1258;61327;-79
2023/03/11 02:09:02;;;;;;;3.30;2.10;;;;;;;6.58;100.00;95507.70;106666;1255;61250;-79
2023/03/11 02:11:28;;;;;;;3.20;2.50;;;;;;;6.54;100.00;95507.60;106606;1259;61159;-79
2023/03/11 02:14:00;;;;;;;3.80;2.00;;;;;;;6.48;100.00;95504.67;106568;1256;61139;-79
2023/03/11 02:16:26;;;;;;;3.70;1.90;;;;;;;6.47;100.00;95506.89;106638;1257;71510;-79
2023/03/11 02:18:53;;;;;;;2.40;1.20;;;;;;;6.44;100.00;95503.07;106511;1256;61292;-80
2023/03/11 02:21:23;;;;;;;2.30;1.50;;;;;;;6.41;100.00;95504.20;107476;1254;61223;-80
2023/03/11 02:24:11;;;;;;;2.40;1.40;;;;;;;6.40;100.00;95502.45;106751;1254;74300;-81
2023/03/11 02:27:00;;;;;;;3.40;1.40;;;;;;;6.39;100.00;95505.83;106690;1257;70676;-79
2023/03/11 02:29:27;;;;;;;4.20;1.60;;;;;;;6.32;100.00;95502.38;106710;1254;71199;-79
2023/03/11 02:31:54;;;;;;;1.50;1.10;;;;;;;6.28;100.00;95492.73;106141;1254;61272;-81
2023/03/11 02:34:26;;;;;;;5.20;2.30;;;;;;;6.26;100.00;95491.00;106124;1257;61253;-80
2023/03/11 02:36:52;;;;;;;4.10;1.80;;;;;;;6.23;100.00;95478.15;106232;1257;73518;-80
2023/03/11 02:39:52;;;;;;;6.10;3.40;;;;;;;6.24;100.00;95475.23;106152;1257;61334;-79
2023/03/11 02:42:24;;;;;;;1.90;1.30;;;;;;;6.19;100.00;95476.40;106369;1254;72946;-80
2023/03/11 02:45:03;;;;;;;7.80;3.90;;;;;;;6.17;100.00;95477.64;109341;1253;58906;-80
2023/03/11 02:47:30;;;;;;;4.80;2.70;;;;;;;6.15;100.00;95479.45;106848;1256;61225;-79
2023/03/11 02:49:56;;;;;;;3.90;2.20;;;;;;;6.16;100.00;95470.89;106192;1254;61289;-80
2023/03/11 02:52:31;;;;;;;5.30;2.30;;;;;;;6.14;100.00;95481.00;106106;1254;59358;-80
2023/03/11 02:54:57;;;;;;;1.40;1.30;;;;;;;6.10;100.00;95484.91;109126;1256;72181;-79
2023/03/11 02:57:24;;;;;;;3.70;1.90;;;;;;;6.10;100.00;95488.11;106242;1258;61285;-80
2023/03/11 02:59:50;;;;;;;2.50;1.10;;;;;;;6.09;100.00;95489.98;106024;1256;61370;-80
2023/03/11 03:02:17;;;;;;;1.20;0.90;;;;;;;6.07;100.00;95494.96;106065;1256;61264;-79
2023/03/11 03:04:43;;;;;;;1.80;1.00;;;;;;;6.06;100.00;95501.16;106107;1260;61331;-81
2023/03/11 03:07:09;;;;;;;2.50;1.50;;;;;;;6.05;100.00;95500.23;106667;1256;61234;-80
2023/03/11 03:09:36;;;;;;;1.80;1.20;;;;;;;6.04;100.00;95509.78;106670;1256;61349;-80
2023/03/11 03:12:03;;;;;;;2.10;1.00;;;;;;;6.02;100.00;95508.55;106472;1258;61281;-80
2023/03/11 03:14:29;;;;;;;3.90;2.00;;;;;;;6.02;100.00;95510.42;106528;1255;61222;-80
2023/03/11 03:16:56;;;;;;;3.50;2.00;;;;;;;6.01;100.00;95503.74;106599;1256;59601;-81
2023/03/11 03:19:22;;;;;;;4.50;2.30;;;;;;;5.98;100.00;95496.67;106678;1255;61239;-79
2023/03/11 03:21:48;;;;;;;1.80;1.00;;;;;;;5.94;100.00;95489.29;106757;1254;62331;-80
2023/03/11 03:24:15;;;;;;;2.20;1.40;;;;;;;5.90;100.00;95490.20;106701;1259;61376;-81
2023/03/11 03:26:41;;;;;;;6.50;1.90;;;;;;;5.91;100.00;95490.73;106721;1254;61381;-80
2023/03/11 03:29:08;;;;;;;5.60;3.40;;;;;;;5.89;100.00;95490.09;106723;1254;61214;-79
2023/03/11 03:31:34;;;;;;;3.20;2.20;;;;;;;5.85;100.00;95492.52;106720;1257;61349;-79
2023/03/11 03:34:00;;;;;;;4.10;2.00;;;;;;;5.84;100.00;95495.68;106676;1259;61365;-79
2023/03/11 03:36:27;;;;;;;2.50;1.40;;;;;;;5.83;100.00;95495.23;106703;1254;61244;-79
2023/03/11 03:38:56;;;;;;;1.50;1.20;;;;;;;5.82;100.00;95497.98;106720;1254;61352;-79
2023/03/11 03:41:23;;;;;;;3.90;2.20;;;;;;;5.81;100.00;95497.90;106740;1253;69303;-79
2023/03/11 03:43:49;;;;;;;3.30;1.10;;;;;;;5.79;100.00;95501.96;106657;1254;61315;-80
2023/03/11 03:46:16;;;;;;;1.60;1.00;;;;;;;5.78;100.00;95499.66;106623;1254;61205;-78
2023/03/11 03:48:42;;;;;;;1.90;0.90;;;;;;;5.75;100.00;95495.39;106478;1254;61203;-79
2023/03/11 03:51:10;;;;;;;1.50;1.10;;;;;;;5.73;100.00;95495.16;106673;1254;61307;-79
2023/03/11 03:53:36;;;;;;;1.20;0.90;;;;;;;5.72;100.00;95493.24;106083;1255;71229;-80
2023/03/11 03:56:08;;;;;;;2.20;1.50;;;;;;;5.71;100.00;95484.26;106022;1261;61285;-80
2023/03/11 03:58:34;;;;;;;1.80;1.30;;;;;;;5.71;100.00;95479.27;108402;1255;61351;-79
2023/03/11 04:01:01;;;;;;;1.80;1.20;;;;;;;5.70;100.00;95474.23;106037;1259;62207;-79
2023/03/11 04:03:27;;;;;;;3.10;1.60;;;;;;;5.70;100.00;95471.02;106011;1260;61276;-80
2023/03/11 04:05:53;;;;;;;2.20;1.40;;;;;;;5.69;100.00;95470.29;105999;1257;60085;-80
2023/03/11 04:08:20;;;;;;;5.50;3.80;;;;;;;5.68;100.00;95471.17;106042;1257;61303;-79
2023/03/11 04:10:55;;;;;;;4.40;1.90;;;;;;;5.68;100.00;95468.42;106642;1256;61398;-80
2023/03/11 04:13:22;;;;;;;2.60;2.10;;;;;;;5.66;100.00;95467.50;106539;1259;61131;-79
2023/03/11 04:15:48;;;;;;;3.50;2.00;;;;;;;5.65;100.00;95465.13;106551;1260;73360;-80
2023/03/11 04:18:15;;;;;;;1.60;1.40;;;;;;;5.65;100.00;95459.00;106525;1255;71823;-79
2023/03/11 04:20:41;;;;;;;3.70;1.40;;;;;;;5.63;100.00;95461.52;106514;1254;61430;-79
2023/03/11 04:23:08;;;;;;;2.90;1.20;;;;;;;5.63;100.00;95462.27;107105;1254;61215;-80
2023/03/11 04:25:34;;;;;;;2.00;1.20;;;;;;;5.63;100.00;95461.93;106144;1254;61426;-78
2023/03/11 04:28:01;;;;;;;3.50;1.30;;;;;;;5.63;100.00;95455.17;106542;1253;61336;-79
2023/03/11 04:30:28;;;;;;;3.80;1.90;;;;;;;5.64;100.00;95454.73;107730;1256;61256;-80
2023/03/11 04:32:54;;;;;;;2.60;1.30;;;;;;;5.66;100.00;95451.89;106376;1254;72632;-79
2023/03/11 04:35:21;;;;;;;2.50;2.00;;;;;;;5.64;100.00;95451.29;107034;1254;61183;-81
2023/03/11 04:37:47;;;;;;;5.40;3.30;;;;;;;5.65;100.00;95451.77;106151;1257;61258;-80
2023/03/11 04:40:14;;;;;;;2.40;1.80;;;;;;;5.64;100.00;95447.20;106136;1255;61336;-80
2023/03/11 04:42:40;;;;;;;4.60;2.30;;;;;;;5.62;100.00;95446.96;106170;1254;61297;-80
2023/03/11 04:45:07;;;;;;;4.50;3.10;;;;;;;5.62;100.00;95448.38;106019;1257;61386;-80
2023/03/11 04:47:34;;;;;;;4.70;3.30;;;;;;;5.59;100.00;95448.48;109232;1255;58999;-81
2023/03/11 04:50:00;;;;;;;2.20;1.40;;;;;;;5.57;100.00;95445.94;109227;1256;59354;-79
2023/03/11 04:52:26;;;;;;;3.00;1.50;;;;;;;5.56;100.00;95445.80;109244;1255;58868;-77
2023/03/11 04:54:53;;;;;;;3.40;1.40;;;;;;;5.54;100.00;95441.42;106986;1255;61369;-79
2023/03/11 04:57:20;;;;;;;2.00;1.10;;;;;;;5.55;100.00;95435.46;106029;1256;61290;-79
2023/03/11 04:59:46;;;;;;;1.40;1.10;;;;;;;5.52;100.00;95433.02;106026;1257;61341;-79
2023/03/11 05:02:13;;;;;;;5.40;1.50;;;;;;;5.51;100.00;95437.60;106023;1255;62148;-79
2023/03/11 05:04:39;;;;;;;1.80;1.10;;;;;;;5.49;100.00;95434.18;109119;1256;58960;-79
2023/03/11 05:07:06;;;;;;;1.70;1.10;;;;;;;5.47;100.00;95435.14;109241;1255;58985;-79
2023/03/11 05:09:34;;;;;;;2.10;1.20;;;;;;;5.45;100.00;95432.73;106480;1256;71677;-79
2023/03/11 05:12:01;;;;;;;4.50;1.50;;;;;;;5.44;100.00;95433.07;106490;1258;61168;-80
2023/03/11 05:14:27;;;;;;;2.50;1.40;;;;;;;5.43;100.00;95438.04;106471;1255;61234;-79
2023/03/11 05:16:54;;;;;;;3.00;1.40;;;;;;;5.44;100.00;95434.69;106459;1256;61336;-80
2023/03/11 05:19:35;;;;;;;1.70;1.00;;;;;;;5.44;100.00;95433.70;105999;1255;62056;-80
2023/03/11 05:22:02;;;;;;;1.20;1.10;;;;;;;5.42;99.92;95431.84;106006;1254;72497;-82
2023/03/11 05:24:29;;;;;;;1.90;1.40;;;;;;;5.41;100.00;95433.23;106119;1254;61267;-79
2023/03/11 05:26:55;;;;;;;3.50;1.60;;;;;;;5.40;100.00;95438.50;106146;1254;61346;-80
2023/03/11 05:29:21;;;;;;;6.20;2.30;;;;;;;5.40;100.00;95436.13;106156;1254;61151;-81
2023/03/11 05:31:48;;;;;;;2.70;2.00;;;;;;;5.40;100.00;95440.71;106089;1254;61188;-80
2023/03/11 05:34:14;;;;;;;3.40;2.50;;;;;;;5.37;99.99;95443.02;106088;1254;61314;-80
2023/03/11 05:36:41;;;;;;;3.20;2.50;;;;;;;5.40;100.00;95442.54;106106;1254;61874;-80
2023/03/11 05:39:07;;;;;;;18.30;10.10;;;;;;;5.41;100.00;95440.21;106134;1254;61195;-79
2023/03/11 05:41:34;;;;;;;7.10;4.80;;;;;;;5.41;100.00;95444.66;106115;1257;61247;-79
2023/03/11 05:44:01;;;;;;;5.50;3.60;;;;;;;5.40;100.00;95448.70;106144;1257;61351;-80
2023/03/11 05:46:27;;;;;;;7.70;4.80;;;;;;;5.39;100.00;95462.47;107886;1254;72575;-79
2023/03/11 05:48:54;;;;;;;2.50;1.60;;;;;;;5.39;100.00;95479.41;106621;1257;61234;-79
2023/03/11 05:51:20;;;;;;;5.90;2.80;;;;;;;5.16;100.00;95495.85;106594;1256;61240;-80
2023/03/11 05:53:47;;;;;;;5.00;3.30;;;;;;;4.71;100.00;95513.23;106605;1256;61319;-80
2023/03/11 05:56:14;;;;;;;2.40;1.00;;;;;;;4.23;100.00;95526.29;106434;1255;69897;-81
2023/03/11 05:58:41;;;;;;;3.90;1.70;;;;;;;3.83;100.00;95535.41;106467;1256;71759;-81
2023/03/11 06:01:12;;;;;;;1.10;1.00;;;;;;;3.54;100.00;95540.92;106392;1256;61197;-79
2023/03/11 06:03:38;;;;;;;12.10;4.00;;;;;;;3.32;100.00;95551.02;106669;1256;61239;-79
2023/03/11 06:06:06;;;;;;;2.60;1.70;;;;;;;3.18;100.00;95553.35;106447;1256;73378;-80
2023/03/11 06:08:36;;;;;;;3.10;1.90;;;;;;;3.08;100.00;95560.98;105983;1256;69385;-80
2023/03/11 06:11:04;;;;;;;2.70;1.70;;;;;;;3.02;100.00;95566.56;105926;1256;72500;-79
2023/03/11 06:13:30;;;;;;;3.30;1.60;;;;;;;2.95;100.00;95571.67;106021;1256;61256;-79
2023/03/11 06:15:57;;;;;;;3.50;2.00;;;;;;;2.91;100.00;95574.48;106009;1260;61313;-80
2023/03/11 06:18:25;;;;;;;6.70;6.00;;;;;;;2.87;100.00;95579.35;105978;1256;61291;-80
2023/03/11 06:20:52;;;;;;;11.90;6.20;;;;;;;2.85;100.00;95580.55;106000;1256;71886;-82
2023/03/11 06:23:19;;;;;;;18.00;7.30;;;;;;;2.87;100.00;95584.05;106023;1256;73010;-81
2023/03/11 06:26:03;;;;;;;16.70;10.00;;;;;;;2.92;100.00;95578.52;106055;1256;61280;-79
2023/03/11 06:28:30;;;;;;;25.60;11.90;;;;;;;2.95;100.00;95586.94;105988;1256;62028;-80
2023/03/11 06:31:05;;;;;;;52.40;24.90;;;;;;;2.98;100.00;95595.17;106471;1255;74653;-81
2023/03/11 06:33:31;;;;;;;27.20;12.80;;;;;;;3.04;100.00;95596.81;106434;1256;70162;-79
2023/03/11 06:35:58;;;;;;;12.00;6.70;;;;;;;3.10;100.00;95597.36;106410;1256;61144;-80
2023/03/11 06:38:24;;;;;;;9.00;4.70;;;;;;;3.16;100.00;95601.13;106473;1255;62372;-82
2023/03/11 06:40:51;;;;;;;6.20;3.30;;;;;;;3.24;100.00;95605.56;106430;1256;61341;-82
2023/03/11 06:43:18;;;;;;;39.10;17.90;;;;;;;3.23;100.00;95599.68;106419;1255;74701;-81
2023/03/11 06:45:44;;;;;;;11.80;6.10;;;;;;;3.27;100.00;95608.23;106332;1256;70904;-81
2023/03/11 06:48:11;;;;;;;14.50;5.60;;;;;;;3.30;100.00;95608.84;106377;1260;61252;-80
2023/03/11 06:50:38;;;;;;;8.40;7.20;;;;;;;3.32;100.00;95615.44;106381;1255;61252;-80
2023/03/11 06:53:07;;;;;;;4.30;2.50;;;;;;;3.32;100.00;95616.61;106273;1256;61257;-81
2023/03/11 06:55:34;;;;;;;9.80;4.70;;;;;;;3.30;100.00;95614.66;106382;1260;74557;-81
2023/03/11 06:58:00;;;;;;;4.10;3.10;;;;;;;3.24;99.26;95617.75;106413;1256;70054;-81
2023/03/11 07:00:29;;;;;;;7.80;3.60;;;;;;;3.21;100.00;95620.86;106410;1256;61309;-81
2023/03/11 07:02:56;;;;;;;3.50;2.30;;;;;;;3.21;100.00;95623.90;106447;1255;61113;-80
2023/03/11 07:05:22;;;;;;;4.90;2.00;;;;;;;3.21;99.59;95623.48;106442;1259;61353;-79
2023/03/11 07:07:50;;;;;;;8.30;3.40;;;;;;;3.21;99.72;95622.30;106399;1256;61270;-79
2023/03/11 07:10:17;;;;;;;7.20;2.80;;;;;;;3.20;98.90;95622.75;106324;1256;73149;-79
2023/03/11 07:12:44;;;;;;;9.60;4.40;;;;;;;3.18;98.89;95620.91;106450;1256;72721;-81
2023/03/11 07:15:10;;;;;;;5.50;3.30;;;;;;;3.17;97.73;95622.20;106361;1256;61156;-79
2023/03/11 07:17:37;;;;;;;4.80;1.90;;;;;;;3.17;97.37;95633.16;106333;1259;61257;-81
2023/03/11 07:20:05;;;;;;;7.70;3.30;;;;;;;3.17;96.53;95635.59;105909;1255;72465;-80
2023/03/11 07:22:31;;;;;;;3.10;2.30;;;;;;;3.14;96.58;95645.89;106181;1254;71961;-81
2023/03/11 07:24:58;;;;;;;3.70;2.30;;;;;;;3.14;96.28;95650.52;106503;1259;71032;-81
2023/03/11 07:27:24;;;;;;;3.80;3.20;;;;;;;3.10;95.81;95651.85;106549;1254;62737;-80
2023/03/11 07:29:51;;;;;;;4.50;3.80;;;;;;;3.07;95.86;95660.34;106418;1253;61216;-79
2023/03/11 07:32:17;;;;;;;6.10;4.80;;;;;;;3.07;96.42;95665.79;106481;1257;61241;-81
2023/03/11 07:34:44;;;;;;;9.90;6.10;;;;;;;3.08;96.87;95669.37;106463;1254;61326;-80
2023/03/11 07:37:10;;;;;;;11.90;7.60;;;;;;;3.10;97.40;95675.23;106467;1257;61343;-81
2023/03/11 07:39:36;;;;;;;12.90;5.80;;;;;;;3.11;97.79;95680.45;106481;1255;61266;-80
2023/03/11 07:42:04;;;;;;;4.80;4.10;;;;;;;3.11;97.86;95689.40;106431;1260;62169;-82
2023/03/11 07:44:30;;;;;;;3.10;2.60;;;;;;;3.10;97.40;95692.46;106486;1254;74892;-81
2023/03/11 07:46:57;;;;;;;3.40;2.30;;;;;;;3.11;97.94;95698.55;106481;1254;61356;-79
2023/03/11 07:49:24;;;;;;;2.90;2.20;;;;;;;3.12;98.11;95704.10;106542;1254;73733;-81
2023/03/11 07:51:50;;;;;;;3.20;2.50;;;;;;;3.11;98.24;95708.82;106460;1257;61281;-78
2023/03/11 07:54:17;;;;;;;28.10;12.00;;;;;;;3.13;98.44;95706.77;106421;1256;61313;-79
2023/03/11 07:56:43;;;;;;;12.60;6.00;;;;;;;3.14;98.42;95708.84;106382;1256;61267;-80
2023/03/11 07:59:10;;;;;;;10.30;5.40;;;;;;;3.16;98.22;95708.77;106451;1255;61380;-79
2023/03/11 08:01:39;;;;;;;10.50;4.40;;;;;;;3.19;97.80;95715.75;106315;1255;61264;-79
2023/03/11 08:04:07;;;;;;;6.40;3.40;;;;;;;3.19;97.56;95713.71;106359;1256;61780;-79
2023/03/11 08:06:34;;;;;;;3.50;3.00;;;;;;;3.20;97.81;95719.08;106341;1256;61227;-81
2023/03/11 08:09:03;;;;;;;4.50;2.40;;;;;;;3.22;97.16;95725.54;106361;1255;74907;-79
2023/03/11 08:11:30;;;;;;;6.50;3.10;;;;;;;3.22;97.32;95730.52;106373;1259;70006;-79
2023/03/11 08:13:56;;;;;;;4.00;2.30;;;;;;;3.25;97.51;95733.31;106338;1256;72061;-79
2023/03/11 08:16:23;;;;;;;6.90;2.30;;;;;;;3.31;97.21;95738.59;106350;1260;61293;-81
2023/03/11 08:18:50;;;;;;;9.00;3.40;;;;;;;3.35;97.12;95746.41;106311;1256;61185;-81
2023/03/11 08:21:18;;;;;;;8.20;4.10;;;;;;;3.43;97.14;95744.48;106427;1254;74549;-81
2023/03/11 08:23:45;;;;;;;20.60;7.30;;;;;;;3.47;96.36;95744.54;106757;1254;71735;-78
2023/03/11 08:26:13;;;;;;;4.80;2.70;;;;;;;3.48;96.77;95750.77;106554;1254;61310;-81
2023/03/11 08:28:39;;;;;;;8.50;3.90;;;;;;;3.50;97.47;95761.40;106471;1254;62207;-81
2023/03/11 08:31:24;;;;;;;5.70;3.90;;;;;;;3.47;97.64;95766.21;106542;1254;61286;-80
2023/03/11 08:33:51;;;;;;;10.00;4.90;;;;;;;3.50;98.18;95767.67;106369;1258;74473;-81
2023/03/11 08:36:19;;;;;;;6.00;3.80;;;;;;;3.55;98.36;95771.09;106393;1256;72181;-81
2023/03/11 08:38:45;;;;;;;6.30;3.70;;;;;;;3.68;98.45;95769.67;106350;1257;71231;-81
2023/03/11 08:41:12;;;;;;;6.80;3.80;;;;;;;3.77;98.26;95772.66;106383;1256;61157;-81
2023/03/11 08:43:39;;;;;;;5.00;2.70;;;;;;;3.90;98.51;95772.77;106357;1259;61144;-79
2023/03/11 08:46:05;;;;;;;4.30;1.80;;;;;;;4.08;98.64;95780.10;106376;1260;74253;-81
2023/03/11 08:48:32;;;;;;;5.50;3.30;;;;;;;4.23;98.37;95780.99;106400;1255;61258;-79
2023/03/11 08:50:59;;;;;;;3.10;2.30;;;;;;;4.26;98.32;95778.33;106391;1255;72462;-80
2023/03/11 08:53:26;;;;;;;8.10;3.00;;;;;;;4.28;98.27;95781.45;106342;1255;61313;-81
2023/03/11 08:55:53;;;;;;;5.70;2.90;;;;;;;4.29;98.83;95785.89;106405;1256;61353;-79
2023/03/11 08:58:19;;;;;;;5.70;3.00;;;;;;;4.32;99.17;95789.60;106356;1256;75797;-81
2023/03/11 09:00:46;;;;;;;2.90;1.60;;;;;;;4.41;97.65;95794.47;106422;1255;69836;-81
2023/03/11 09:03:12;;;;;;;1.90;1.40;;;;;;;4.52;97.76;95801.54;106003;1260;71197;-80
2023/03/11 09:05:39;;;;;;;4.50;2.00;;;;;;;4.56;96.24;95800.61;106470;1256;61351;-82
2023/03/11 09:08:06;;;;;;;9.20;4.50;;;;;;;4.64;96.86;95805.09;106561;1256;61257;-81
2023/03/11 09:10:32;;;;;;;7.60;4.40;;;;;;;4.72;96.80;95808.91;106008;1255;75435;-78
2023/03/11 09:12:59;;;;;;;13.30;6.70;;;;;;;4.74;97.37;95815.91;106034;1256;61238;-77
2023/03/11 09:15:25;;;;;;;5.80;3.50;;;;;;;4.66;96.96;95824.52;105986;1256;61270;-81
2023/03/11 09:17:53;;;;;;;6.30;3.70;;;;;;;4.62;96.84;95826.04;106141;1260;61148;-80
2023/03/11 09:20:19;;;;;;;5.60;3.70;;;;;;;4.46;97.14;95830.81;106083;1263;61212;-78
2023/03/11 09:22:46;;;;;;;3.90;2.30;;;;;;;4.34;97.69;95829.66;106057;1254;74683;-81
2023/03/11 09:25:13;;;;;;;5.00;3.20;;;;;;;4.24;97.68;95831.38;106088;1257;61357;-79
2023/03/11 09:27:40;;;;;;;5.70;3.70;;;;;;;4.25;98.03;95835.58;106072;1254;61330;-80
2023/03/11 09:30:09;;;;;;;4.30;2.60;;;;;;;4.25;97.92;95842.30;106432;1259;61586;-79
2023/03/11 09:32:36;;;;;;;4.30;2.60;;;;;;;4.25;98.54;95845.77;106471;1255;61149;-79
2023/03/11 09:35:03;;;;;;;4.70;2.10;;;;;;;4.21;98.35;95847.20;106282;1255;61345;-81
2023/03/11 09:37:29;;;;;;;7.40;5.70;;;;;;;4.19;98.60;95857.67;106349;1258;70574;-80
2023/03/11 09:39:55;;;;;;;8.20;5.10;;;;;;;4.19;98.67;95863.63;105979;1256;61188;-81
2023/03/11 09:42:45;;;;;;;8.40;3.00;;;;;;;4.18;98.24;95875.55;106348;1256;61249;-81
2023/03/11 09:45:16;;;;;;;3.60;2.40;;;;;;;3.99;95.53;95875.91;106449;1255;61175;-81
2023/03/11 09:47:52;;;;;;;9.20;5.60;;;;;;;4.03;95.63;95869.51;106405;1260;74595;-79
2023/03/11 09:50:34;;;;;;;3.30;2.10;;;;;;;3.98;95.49;95877.54;106408;1256;71069;-81
2023/03/11 09:53:07;;;;;;;4.60;1.90;;;;;;;3.85;95.83;95887.14;106457;1260;72993;-79
2023/03/11 09:55:42;;;;;;;10.20;4.80;;;;;;;3.85;96.07;95897.91;106406;1255;61427;-82
2023/03/11 09:58:30;;;;;;;4.80;2.90;;;;;;;3.67;96.05;95913.14;106463;1256;61436;-80
2023/03/11 10:00:57;;;;;;;5.80;3.40;;;;;;;3.54;96.40;95926.74;106486;1256;74535;-78
2023/03/11 10:03:51;;;;;;;19.00;8.90;;;;;;;3.46;97.04;95935.78;105987;1261;61254;-78
2023/03/11 10:06:25;;;;;;;2.80;1.90;;;;;;;3.44;97.43;95945.76;106098;1260;72683;-80
2023/03/11 10:09:11;;;;;;;3.20;2.00;;;;;;;3.32;96.97;95951.89;105957;1256;62134;-79
2023/03/11 10:12:15;;;;;;;2.30;1.60;;;;;;;3.19;96.57;95949.08;105935;1256;61192;-80
2023/03/11 10:14:54;;;;;;;9.40;5.60;;;;;;;3.06;97.81;95951.81;105956;1255;73802;-80
2023/03/11 10:17:20;;;;;;;9.00;5.10;;;;;;;3.09;98.50;95946.48;105943;1255;71308;-81
2023/03/11 10:20:11;;;;;;;9.70;6.30;;;;;;;3.22;98.71;95947.21;105976;1261;61268;-80
2023/03/11 10:22:45;;;;;;;7.70;4.60;;;;;;;3.33;99.21;95958.30;106166;1254;61252;-78
2023/03/11 10:25:21;;;;;;;4.00;2.80;;;;;;;3.39;98.97;95962.30;106011;1255;62113;-78
2023/03/11 10:27:50;;;;;;;5.40;3.60;;;;;;;3.40;98.87;95966.79;105964;1262;75928;-78
2023/03/11 10:30:23;;;;;;;6.20;3.50;;;;;;;3.45;99.00;95968.89;105997;1256;70852;-79
2023/03/11 10:32:51;;;;;;;5.60;3.20;;;;;;;3.40;98.96;95971.02;106268;1259;72887;-79
2023/03/11 10:35:22;;;;;;;4.80;3.80;;;;;;;3.27;99.13;95981.69;106189;1256;62175;-81
2023/03/11 10:37:54;;;;;;;8.60;4.80;;;;;;;3.09;99.67;95990.15;106202;1256;61252;-79
2023/03/11 10:40:29;;;;;;;10.80;6.70;;;;;;;2.99;99.89;95993.19;106190;1257;74454;-81
2023/03/11 10:42:58;;;;;;;6.30;3.80;;;;;;;3.00;100.00;95994.84;106226;1256;70173;-81
2023/03/11 10:45:24;;;;;;;11.70;6.80;;;;;;;3.02;100.00;96003.11;106216;1256;70960;-81
2023/03/11 10:47:51;;;;;;;7.80;4.20;;;;;;;2.96;100.00;96006.42;106150;1256;61260;-79
2023/03/11 10:50:18;;;;;;;3.70;2.30;;;;;;;2.89;100.00;96007.92;106331;1256;61141;-81
2023/03/11 10:53:08;;;;;;;5.30;4.10;;;;;;;2.75;100.00;96018.19;106211;1260;73443;-81
2023/03/11 10:55:34;;;;;;;6.00;2.40;;;;;;;2.59;100.00;96017.91;106215;1256;72323;-80
2023/03/11 10:58:06;;;;;;;3.40;1.80;;;;;;;2.48;100.00;96023.48;106251;1260;71358;-80
2023/03/11 11:00:32;;;;;;;5.30;2.80;;;;;;;2.40;100.00;96027.55;106257;1256;61193;-78
2023/03/11 11:03:00;;;;;;;10.50;5.30;;;;;;;2.35;100.00;96036.19;106232;1259;61400;-81
2023/03/11 11:05:28;;;;;;;7.50;4.10;;;;;;;2.28;100.00;96041.29;106211;1260;73656;-79
2023/03/11 11:08:14;;;;;;;4.60;2.50;;;;;;;2.17;100.00;96046.46;106247;1255;71182;-80
2023/03/11 11:10:58;;;;;;;5.90;3.80;;;;;;;2.08;100.00;96046.14;106291;1255;73740;-80
2023/03/11 11:13:33;;;;;;;6.20;3.90;;;;;;;1.91;100.00;96055.32;106244;1256;62258;-79
2023/03/11 11:16:17;;;;;;;11.00;6.50;;;;;;;1.79;100.00;96063.42;106079;1256;61239;-81
2023/03/11 11:18:45;;;;;;;62.20;30.90;;;;;;;1.75;100.00;96070.91;106252;1255;74544;-80
2023/03/11 11:21:38;;;;;;;24.20;8.30;;;;;;;1.64;100.00;96075.95;106251;1256;71034;-82
2023/03/11 11:24:24;;;;;;;11.60;5.40;;;;;;;1.57;100.00;96077.61;106261;1256;71748;-81
2023/03/11 11:27:04;;;;;;;7.90;3.70;;;;;;;1.50;100.00;96084.73;106369;1256;61273;-78
2023/03/11 11:29:30;;;;;;;7.50;3.90;;;;;;;1.44;100.00;96090.44;106366;1256;61356;-79
2023/03/11 11:32:17;;;;;;;15.80;6.40;;;;;;;1.41;100.00;96092.80;106239;1254;61352;-79